sensor_id;sensor_type;location;lat;lon;timestamp;pressure;altitude;pressure_sealevel;temperature;humidity
62124;BME280;48110;47.532;19.078;2023-12-29T00:01:42;100810.88;;;0.77;100.00
62124;BME280;48110;47.532;19.078;2023-12-29T00:04:45;100822.25;;;0.76;100.00
62124;BME280;48110;47.532;19.078;2023-12-29T00:07:48;100824.28;;;0.85;100.00
62124;BME280;48110;47.532;19.078;2023-12-29T00:10:51;100816.06;;;0.91;100.00
62124;BME280;48110;47.532;19.078;2023-12-29T00:13:54;100820.75;;;0.86;100.00
62124;BME280;48110;47.532;19.078;2023-12-29T00:16:57;100810.66;;;0.80;100.00
62124;BME280;48110;47.532;19.078;2023-12-29T00:20:00;100808.06;;;0.80;100.00
62124;BME280;48110;47.532;19.078;2023-12-29T00:23:03;100799.09;;;0.84;100.00
62124;BME280;48110;47.532;19.078;2023-12-29T00:26:06;100796.19;;;0.88;100.00
62124;BME280;48110;47.532;19.078;2023-12-29T00:29:10;100788.28;;;0.90;100.00
62124;BME280;48110;47.532;19.078;2023-12-29T00:32:13;100781.06;;;0.94;100.00
62124;BME280;48110;47.532;19.078;2023-12-29T00:35:17;100779.22;;;0.96;100.00
62124;BME280;48110;47.532;19.078;2023-12-29T00:38:19;100779.09;;;0.97;100.00
62124;BME280;48110;47.532;19.078;2023-12-29T00:41:23;100790.09;;;1.02;100.00
62124;BME280;48110;47.532;19.078;2023-12-29T00:44:26;100789.25;;;1.02;100.00
62124;BME280;48110;47.532;19.078;2023-12-29T00:47:28;100805.31;;;1.10;100.00
62124;BME280;48110;47.532;19.078;2023-12-29T00:50:31;100794.66;;;1.13;100.00
62124;BME280;48110;47.532;19.078;2023-12-29T00:53:35;100781.88;;;1.08;100.00
62124;BME280;48110;47.532;19.078;2023-12-29T00:56:38;100784.50;;;1.08;100.00
62124;BME280;48110;47.532;19.078;2023-12-29T00:59:41;100783.81;;;1.19;100.00
62124;BME280;48110;47.532;19.078;2023-12-29T01:02:44;100782.66;;;1.23;100.00
62124;BME280;48110;47.532;19.078;2023-12-29T01:05:48;100773.41;;;1.05;100.00
62124;BME280;48110;47.532;19.078;2023-12-29T01:08:51;100777.03;;;1.02;100.00
62124;BME280;48110;47.532;19.078;2023-12-29T01:11:54;100787.47;;;1.02;100.00
62124;BME280;48110;47.532;19.078;2023-12-29T01:14:57;100791.34;;;0.97;100.00
62124;BME280;48110;47.532;19.078;2023-12-29T01:18:01;100786.25;;;1.08;100.00
62124;BME280;48110;47.532;19.078;2023-12-29T01:21:04;100791.69;;;1.05;100.00
62124;BME280;48110;47.532;19.078;2023-12-29T01:24:07;100786.13;;;0.97;100.00
62124;BME280;48110;47.532;19.078;2023-12-29T01:27:10;100780.06;;;0.96;100.00
62124;BME280;48110;47.532;19.078;2023-12-29T01:30:14;100788.53;;;1.00;100.00
62124;BME280;48110;47.532;19.078;2023-12-29T01:33:16;100786.56;;;1.03;100.00
62124;BME280;48110;47.532;19.078;2023-12-29T01:36:19;100788.28;;;0.90;100.00
62124;BME280;48110;47.532;19.078;2023-12-29T01:39:27;100771.66;;;0.91;100.00
62124;BME280;48110;47.532;19.078;2023-12-29T01:42:31;100777.72;;;0.92;100.00
62124;BME280;48110;47.532;19.078;2023-12-29T01:45:33;100766.44;;;0.91;100.00
62124;BME280;48110;47.532;19.078;2023-12-29T01:48:51;100763.09;;;0.89;100.00
62124;BME280;48110;47.532;19.078;2023-12-29T01:51:56;100763.28;;;0.86;100.00
62124;BME280;48110;47.532;19.078;2023-12-29T01:55:00;100772.03;;;0.85;100.00
62124;BME280;48110;47.532;19.078;2023-12-29T01:58:03;100765.91;;;0.86;100.00
62124;BME280;48110;47.532;19.078;2023-12-29T02:01:07;100758.91;;;0.86;100.00
62124;BME280;48110;47.532;19.078;2023-12-29T02:04:12;100749.09;;;0.90;100.00
62124;BME280;48110;47.532;19.078;2023-12-29T02:07:15;100739.56;;;0.89;100.00
62124;BME280;48110;47.532;19.078;2023-12-29T02:10:21;100748.87;;;0.93;100.00
62124;BME280;48110;47.532;19.078;2023-12-29T02:13:24;100748.87;;;0.93;100.00
62124;BME280;48110;47.532;19.078;2023-12-29T02:16:38;100748.72;;;0.96;100.00
62124;BME280;48110;47.532;19.078;2023-12-29T02:19:46;100744.12;;;1.00;100.00
62124;BME280;48110;47.532;19.078;2023-12-29T02:22:50;100755.19;;;1.03;100.00
62124;BME280;48110;47.532;19.078;2023-12-29T02:25:55;100749.03;;;1.04;100.00
62124;BME280;48110;47.532;19.078;2023-12-29T02:29:02;100756.50;;;1.10;100.00
62124;BME280;48110;47.532;19.078;2023-12-29T02:32:11;100744.28;;;1.11;100.00
62124;BME280;48110;47.532;19.078;2023-12-29T02:35:23;100748.00;;;1.07;100.00
62124;BME280;48110;47.532;19.078;2023-12-29T02:38:28;100729.16;;;1.02;100.00
62124;BME280;48110;47.532;19.078;2023-12-29T02:41:32;100725.63;;;1.03;100.00
62124;BME280;48110;47.532;19.078;2023-12-29T02:44:36;100725.63;;;1.03;100.00
62124;BME280;48110;47.532;19.078;2023-12-29T02:47:38;100725.63;;;1.03;100.00
62124;BME280;48110;47.532;19.078;2023-12-29T02:50:41;100731.78;;;1.02;100.00
62124;BME280;48110;47.532;19.078;2023-12-29T02:53:44;100729.06;;;1.03;100.00
62124;BME280;48110;47.532;19.078;2023-12-29T02:56:47;100729.72;;;1.07;100.00
62124;BME280;48110;47.532;19.078;2023-12-29T02:59:51;100731.41;;;1.08;100.00
62124;BME280;48110;47.532;19.078;2023-12-29T03:02:54;100732.78;;;1.13;100.00
62124;BME280;48110;47.532;19.078;2023-12-29T03:05:58;100730.25;;;1.12;100.00
62124;BME280;48110;47.532;19.078;2023-12-29T03:09:00;100718.25;;;1.09;100.00
62124;BME280;48110;47.532;19.078;2023-12-29T03:12:04;100704.97;;;1.12;100.00
62124;BME280;48110;47.532;19.078;2023-12-29T03:15:08;100699.66;;;1.14;100.00
62124;BME280;48110;47.532;19.078;2023-12-29T03:18:11;100706.75;;;1.12;100.00
62124;BME280;48110;47.532;19.078;2023-12-29T03:21:15;100715.63;;;1.09;100.00
62124;BME280;48110;47.532;19.078;2023-12-29T03:24:18;100710.94;;;1.14;100.00
62124;BME280;48110;47.532;19.078;2023-12-29T03:27:23;100707.50;;;1.14;100.00
62124;BME280;48110;47.532;19.078;2023-12-29T03:30:26;100707.50;;;1.14;100.00
62124;BME280;48110;47.532;19.078;2023-12-29T03:33:30;100708.88;;;1.32;100.00
62124;BME280;48110;47.532;19.078;2023-12-29T03:36:33;100709.41;;;1.24;100.00
62124;BME280;48110;47.532;19.078;2023-12-29T03:39:37;100707.87;;;1.35;100.00
62124;BME280;48110;47.532;19.078;2023-12-29T03:42:40;100704.19;;;1.24;100.00
62124;BME280;48110;47.532;19.078;2023-12-29T03:45:43;100705.50;;;1.17;100.00
62124;BME280;48110;47.532;19.078;2023-12-29T03:48:46;100711.41;;;1.21;100.00
62124;BME280;48110;47.532;19.078;2023-12-29T03:51:50;100700.50;;;1.14;100.00
62124;BME280;48110;47.532;19.078;2023-12-29T03:54:53;100711.41;;;1.07;100.00
62124;BME280;48110;47.532;19.078;2023-12-29T03:57:56;100720.31;;;1.04;100.00
62124;BME280;48110;47.532;19.078;2023-12-29T04:00:59;100722.38;;;0.99;100.00
62124;BME280;48110;47.532;19.078;2023-12-29T04:04:03;100721.84;;;0.94;100.00
62124;BME280;48110;47.532;19.078;2023-12-29T04:07:06;100720.34;;;0.90;100.00
62124;BME280;48110;47.532;19.078;2023-12-29T04:10:09;100724.94;;;0.86;100.00
62124;BME280;48110;47.532;19.078;2023-12-29T04:13:13;100724.50;;;0.80;100.00
62124;BME280;48110;47.532;19.078;2023-12-29T04:16:17;100727.19;;;0.78;100.00
62124;BME280;48110;47.532;19.078;2023-12-29T04:19:20;100725.37;;;0.66;100.00
62124;BME280;48110;47.532;19.078;2023-12-29T04:22:23;100718.47;;;0.65;100.00
62124;BME280;48110;47.532;19.078;2023-12-29T04:25:26;100731.06;;;0.59;100.00
62124;BME280;48110;47.532;19.078;2023-12-29T04:28:29;100730.41;;;0.55;100.00
62124;BME280;48110;47.532;19.078;2023-12-29T04:31:32;100726.97;;;0.55;100.00
62124;BME280;48110;47.532;19.078;2023-12-29T04:34:36;100727.34;;;0.63;100.00
62124;BME280;48110;47.532;19.078;2023-12-29T04:37:39;100721.16;;;0.64;100.00
62124;BME280;48110;47.532;19.078;2023-12-29T04:40:42;100730.31;;;0.57;100.00
62124;BME280;48110;47.532;19.078;2023-12-29T04:43:44;100728.00;;;0.52;100.00
62124;BME280;48110;47.532;19.078;2023-12-29T04:46:47;100715.69;;;0.54;100.00
62124;BME280;48110;47.532;19.078;2023-12-29T04:49:50;100705.53;;;0.50;100.00
62124;BME280;48110;47.532;19.078;2023-12-29T04:52:53;100714.47;;;0.46;100.00
62124;BME280;48110;47.532;19.078;2023-12-29T04:55:56;100717.47;;;0.39;100.00
62124;BME280;48110;47.532;19.078;2023-12-29T04:58:59;100721.97;;;0.37;100.00
62124;BME280;48110;47.532;19.078;2023-12-29T05:02:02;100723.91;;;0.48;100.00
62124;BME280;48110;47.532;19.078;2023-12-29T05:05:06;100724.34;;;0.55;100.00
62124;BME280;48110;47.532;19.078;2023-12-29T05:08:09;100719.03;;;0.56;100.00
62124;BME280;48110;47.532;19.078;2023-12-29T05:11:12;100722.50;;;0.57;100.00
62124;BME280;48110;47.532;19.078;2023-12-29T05:14:16;100720.44;;;0.62;100.00
62124;BME280;48110;47.532;19.078;2023-12-29T05:17:19;100736.94;;;0.62;100.00
62124;BME280;48110;47.532;19.078;2023-12-29T05:20:22;100718.56;;;0.50;100.00
62124;BME280;48110;47.532;19.078;2023-12-29T05:23:25;100722.38;;;0.58;100.00
62124;BME280;48110;47.532;19.078;2023-12-29T05:26:28;100740.12;;;0.53;100.00
62124;BME280;48110;47.532;19.078;2023-12-29T05:29:32;100734.22;;;0.50;100.00
62124;BME280;48110;47.532;19.078;2023-12-29T05:32:35;100739.84;;;0.43;100.00
62124;BME280;48110;47.532;19.078;2023-12-29T05:35:38;100741.34;;;0.48;100.00
62124;BME280;48110;47.532;19.078;2023-12-29T05:38:44;100743.75;;;0.51;100.00
62124;BME280;48110;47.532;19.078;2023-12-29T05:41:48;100746.25;;;0.66;100.00
62124;BME280;48110;47.532;19.078;2023-12-29T05:44:51;100750.91;;;0.61;100.00
62124;BME280;48110;47.532;19.078;2023-12-29T05:47:54;100747.38;;;0.62;100.00
62124;BME280;48110;47.532;19.078;2023-12-29T05:50:57;100755.66;;;0.69;100.00
62124;BME280;48110;47.532;19.078;2023-12-29T05:54:00;100759.75;;;0.73;100.00
62124;BME280;48110;47.532;19.078;2023-12-29T05:57:03;100755.22;;;0.48;100.00
62124;BME280;48110;47.532;19.078;2023-12-29T06:00:06;100752.06;;;0.43;100.00
62124;BME280;48110;47.532;19.078;2023-12-29T06:03:13;100754.84;;;0.54;100.00
62124;BME280;48110;47.532;19.078;2023-12-29T06:06:16;100750.38;;;0.56;100.00
62124;BME280;48110;47.532;19.078;2023-12-29T06:09:20;100762.56;;;0.56;100.00
62124;BME280;48110;47.532;19.078;2023-12-29T06:12:23;100769.37;;;0.58;100.00
62124;BME280;48110;47.532;19.078;2023-12-29T06:15:26;100766.97;;;0.55;100.00
62124;BME280;48110;47.532;19.078;2023-12-29T06:18:30;100762.37;;;0.59;100.00
62124;BME280;48110;47.532;19.078;2023-12-29T06:21:33;100765.94;;;0.58;100.00
62124;BME280;48110;47.532;19.078;2023-12-29T06:24:36;100762.94;;;0.50;100.00
62124;BME280;48110;47.532;19.078;2023-12-29T06:27:40;100751.50;;;0.38;100.00
62124;BME280;48110;47.532;19.078;2023-12-29T06:30:43;100749.53;;;0.41;100.00
62124;BME280;48110;47.532;19.078;2023-12-29T06:33:46;100754.09;;;0.66;100.00
62124;BME280;48110;47.532;19.078;2023-12-29T06:36:50;100753.62;;;0.60;100.00
62124;BME280;48110;47.532;19.078;2023-12-29T06:39:53;100755.69;;;0.55;100.00
62124;BME280;48110;47.532;19.078;2023-12-29T06:42:56;100761.53;;;0.58;100.00
62124;BME280;48110;47.532;19.078;2023-12-29T06:46:00;100755.50;;;0.58;100.00
62124;BME280;48110;47.532;19.078;2023-12-29T06:49:04;100765.38;;;0.67;100.00
62124;BME280;48110;47.532;19.078;2023-12-29T06:52:07;100766.37;;;0.64;100.00
62124;BME280;48110;47.532;19.078;2023-12-29T06:55:10;100761.91;;;0.66;100.00
62124;BME280;48110;47.532;19.078;2023-12-29T06:58:13;100754.47;;;0.60;100.00
62124;BME280;48110;47.532;19.078;2023-12-29T07:01:16;100759.75;;;0.73;100.00
62124;BME280;48110;47.532;19.078;2023-12-29T07:04:19;100756.13;;;0.75;100.00
62124;BME280;48110;47.532;19.078;2023-12-29T07:07:22;100755.19;;;0.76;100.00
62124;BME280;48110;47.532;19.078;2023-12-29T07:10:25;100763.31;;;0.72;100.00
62124;BME280;48110;47.532;19.078;2023-12-29T07:13:28;100758.81;;;0.74;100.00
62124;BME280;48110;47.532;19.078;2023-12-29T07:16:31;100777.28;;;0.71;100.00
62124;BME280;48110;47.532;19.078;2023-12-29T07:19:34;100762.72;;;0.81;100.00
62124;BME280;48110;47.532;19.078;2023-12-29T07:22:40;100760.25;;;0.92;100.00
62124;BME280;48110;47.532;19.078;2023-12-29T07:25:43;100756.88;;;1.04;100.00
62124;BME280;48110;47.532;19.078;2023-12-29T07:28:46;100766.94;;;1.10;100.00
62124;BME280;48110;47.532;19.078;2023-12-29T07:31:49;100759.97;;;1.11;100.00
62124;BME280;48110;47.532;19.078;2023-12-29T07:34:52;100766.84;;;1.12;100.00
62124;BME280;48110;47.532;19.078;2023-12-29T07:37:55;100766.25;;;0.94;100.00
62124;BME280;48110;47.532;19.078;2023-12-29T07:40:59;100760.03;;;1.09;100.00
62124;BME280;48110;47.532;19.078;2023-12-29T07:44:03;100760.13;;;0.81;100.00
62124;BME280;48110;47.532;19.078;2023-12-29T07:47:06;100750.44;;;0.69;100.00
62124;BME280;48110;47.532;19.078;2023-12-29T07:50:09;100751.53;;;0.79;100.00
62124;BME280;48110;47.532;19.078;2023-12-29T07:53:12;100758.19;;;0.97;100.00
62124;BME280;48110;47.532;19.078;2023-12-29T07:56:15;100759.50;;;1.04;100.00
62124;BME280;48110;47.532;19.078;2023-12-29T07:59:18;100758.69;;;1.16;100.00
62124;BME280;48110;47.532;19.078;2023-12-29T08:02:21;100760.94;;;1.22;100.00
62124;BME280;48110;47.532;19.078;2023-12-29T08:05:24;100760.78;;;1.51;100.00
62124;BME280;48110;47.532;19.078;2023-12-29T08:08:27;100758.63;;;1.70;100.00
62124;BME280;48110;47.532;19.078;2023-12-29T08:11:30;100754.81;;;1.88;100.00
62124;BME280;48110;47.532;19.078;2023-12-29T08:14:33;100757.22;;;1.79;100.00
62124;BME280;48110;47.532;19.078;2023-12-29T08:17:36;100760.25;;;1.98;100.00
62124;BME280;48110;47.532;19.078;2023-12-29T08:20:40;100765.59;;;1.84;100.00
62124;BME280;48110;47.532;19.078;2023-12-29T08:23:44;100772.91;;;1.79;100.00
62124;BME280;48110;47.532;19.078;2023-12-29T08:26:47;100770.03;;;1.56;100.00
62124;BME280;48110;47.532;19.078;2023-12-29T08:29:50;100770.47;;;1.75;100.00
62124;BME280;48110;47.532;19.078;2023-12-29T08:32:53;100775.22;;;1.96;100.00
62124;BME280;48110;47.532;19.078;2023-12-29T08:35:56;100773.56;;;2.07;100.00
62124;BME280;48110;47.532;19.078;2023-12-29T08:39:03;100767.06;;;2.00;100.00
62124;BME280;48110;47.532;19.078;2023-12-29T08:42:06;100774.41;;;2.21;100.00
62124;BME280;48110;47.532;19.078;2023-12-29T08:45:09;100772.06;;;2.29;100.00
62124;BME280;48110;47.532;19.078;2023-12-29T08:48:12;100768.94;;;2.24;100.00
62124;BME280;48110;47.532;19.078;2023-12-29T08:51:15;100769.66;;;2.51;100.00
62124;BME280;48110;47.532;19.078;2023-12-29T08:54:18;100770.00;;;2.46;100.00
62124;BME280;48110;47.532;19.078;2023-12-29T08:57:21;100768.13;;;2.36;100.00
62124;BME280;48110;47.532;19.078;2023-12-29T09:00:24;100763.50;;;2.39;100.00
62124;BME280;48110;47.532;19.078;2023-12-29T09:03:27;100768.19;;;2.59;100.00
62124;BME280;48110;47.532;19.078;2023-12-29T09:06:31;100776.28;;;2.93;100.00
62124;BME280;48110;47.532;19.078;2023-12-29T09:09:34;100779.84;;;3.16;100.00
62124;BME280;48110;47.532;19.078;2023-12-29T09:12:38;100772.00;;;3.16;100.00
62124;BME280;48110;47.532;19.078;2023-12-29T09:15:41;100783.13;;;2.83;100.00
62124;BME280;48110;47.532;19.078;2023-12-29T09:18:44;100763.31;;;2.79;100.00
62124;BME280;48110;47.532;19.078;2023-12-29T09:21:47;100766.03;;;2.90;100.00
62124;BME280;48110;47.532;19.078;2023-12-29T09:24:50;100764.25;;;3.14;100.00
62124;BME280;48110;47.532;19.078;2023-12-29T09:27:53;100773.97;;;3.48;100.00
62124;BME280;48110;47.532;19.078;2023-12-29T09:30:57;100779.87;;;3.74;100.00
62124;BME280;48110;47.532;19.078;2023-12-29T09:34:00;100774.09;;;3.82;100.00
62124;BME280;48110;47.532;19.078;2023-12-29T09:37:04;100767.91;;;3.59;100.00
62124;BME280;48110;47.532;19.078;2023-12-29T09:40:07;100766.41;;;3.68;100.00
62124;BME280;48110;47.532;19.078;2023-12-29T09:43:13;100767.22;;;3.68;100.00
62124;BME280;48110;47.532;19.078;2023-12-29T09:46:21;100770.47;;;3.72;100.00
62124;BME280;48110;47.532;19.078;2023-12-29T09:49:25;100775.81;;;3.70;100.00
62124;BME280;48110;47.532;19.078;2023-12-29T09:52:29;100760.38;;;3.55;100.00
62124;BME280;48110;47.532;19.078;2023-12-29T09:55:33;100757.31;;;3.61;100.00
62124;BME280;48110;47.532;19.078;2023-12-29T09:58:36;100754.56;;;3.62;100.00
62124;BME280;48110;47.532;19.078;2023-12-29T10:01:41;100761.25;;;3.66;100.00
62124;BME280;48110;47.532;19.078;2023-12-29T10:04:45;100749.94;;;3.66;100.00
62124;BME280;48110;47.532;19.078;2023-12-29T10:07:49;100748.87;;;3.79;100.00
62124;BME280;48110;47.532;19.078;2023-12-29T10:10:55;100739.00;;;3.83;100.00
62124;BME280;48110;47.532;19.078;2023-12-29T10:14:09;100731.84;;;3.85;100.00
62124;BME280;48110;47.532;19.078;2023-12-29T10:20:58;100724.94;;;3.95;100.00
62124;BME280;48110;47.532;19.078;2023-12-29T10:24:17;100735.59;;;4.05;100.00
62124;BME280;48110;47.532;19.078;2023-12-29T10:27:20;100720.78;;;4.15;100.00
62124;BME280;48110;47.532;19.078;2023-12-29T10:30:24;100719.59;;;4.19;100.00
62124;BME280;48110;47.532;19.078;2023-12-29T10:33:36;100718.19;;;4.26;100.00
62124;BME280;48110;47.532;19.078;2023-12-29T10:36:49;100702.19;;;4.40;100.00
62124;BME280;48110;47.532;19.078;2023-12-29T10:39:55;100708.50;;;4.37;100.00
62124;BME280;48110;47.532;19.078;2023-12-29T10:42:59;100706.94;;;4.46;100.00
62124;BME280;48110;47.532;19.078;2023-12-29T10:46:08;100703.72;;;4.54;100.00
62124;BME280;48110;47.532;19.078;2023-12-29T10:49:13;100695.00;;;4.64;100.00
62124;BME280;48110;47.532;19.078;2023-12-29T10:52:16;100699.16;;;4.56;100.00
62124;BME280;48110;47.532;19.078;2023-12-29T10:55:23;100695.94;;;4.52;100.00
62124;BME280;48110;47.532;19.078;2023-12-29T10:58:29;100698.66;;;4.73;100.00
62124;BME280;48110;47.532;19.078;2023-12-29T11:01:35;100697.66;;;4.85;100.00
62124;BME280;48110;47.532;19.078;2023-12-29T11:04:38;100687.87;;;4.87;100.00
62124;BME280;48110;47.532;19.078;2023-12-29T11:07:44;100688.25;;;4.82;100.00
62124;BME280;48110;47.532;19.078;2023-12-29T11:10:48;100682.38;;;4.90;100.00
62124;BME280;48110;47.532;19.078;2023-12-29T11:13:53;100673.78;;;4.88;100.00
62124;BME280;48110;47.532;19.078;2023-12-29T11:16:57;100683.69;;;4.85;100.00
62124;BME280;48110;47.532;19.078;2023-12-29T11:20:04;100670.44;;;4.86;100.00
62124;BME280;48110;47.532;19.078;2023-12-29T11:23:11;100661.56;;;4.98;100.00
62124;BME280;48110;47.532;19.078;2023-12-29T11:26:16;100659.75;;;4.99;100.00
62124;BME280;48110;47.532;19.078;2023-12-29T11:29:19;100657.19;;;4.88;100.00
62124;BME280;48110;47.532;19.078;2023-12-29T11:32:30;100655.69;;;4.95;100.00
62124;BME280;48110;47.532;19.078;2023-12-29T11:35:45;100653.63;;;4.77;100.00
62124;BME280;48110;47.532;19.078;2023-12-29T11:39:14;100656.94;;;4.79;100.00
62124;BME280;48110;47.532;19.078;2023-12-29T11:42:26;100653.50;;;4.79;100.00
62124;BME280;48110;47.532;19.078;2023-12-29T11:45:36;100640.69;;;4.86;100.00
62124;BME280;48110;47.532;19.078;2023-12-29T11:48:55;100630.44;;;4.82;100.00
62124;BME280;48110;47.532;19.078;2023-12-29T11:52:00;100629.09;;;4.88;100.00
62124;BME280;48110;47.532;19.078;2023-12-29T11:55:10;100614.97;;;4.89;100.00
62124;BME280;48110;47.532;19.078;2023-12-29T11:58:26;100623.19;;;4.96;100.00
62124;BME280;48110;47.532;19.078;2023-12-29T12:01:34;100615.12;;;5.08;100.00
62124;BME280;48110;47.532;19.078;2023-12-29T12:04:43;100607.06;;;5.21;100.00
62124;BME280;48110;47.532;19.078;2023-12-29T12:07:56;100610.03;;;5.28;100.00
62124;BME280;48110;47.532;19.078;2023-12-29T12:14:52;100603.25;;;5.86;100.00
62124;BME280;48110;47.532;19.078;2023-12-29T12:17:57;100599.31;;;6.31;100.00
62124;BME280;48110;47.532;19.078;2023-12-29T12:21:00;100595.88;;;6.60;100.00
62124;BME280;48110;47.532;19.078;2023-12-29T12:24:06;100600.22;;;6.89;100.00
62124;BME280;48110;47.532;19.078;2023-12-29T12:27:10;100602.28;;;7.15;100.00
62124;BME280;48110;47.532;19.078;2023-12-29T12:30:18;100594.22;;;7.26;100.00
62124;BME280;48110;47.532;19.078;2023-12-29T12:33:21;100593.50;;;7.80;100.00
62124;BME280;48110;47.532;19.078;2023-12-29T12:36:24;100587.88;;;8.02;100.00
62124;BME280;48110;47.532;19.078;2023-12-29T12:39:41;100587.31;;;8.36;100.00
62124;BME280;48110;47.532;19.078;2023-12-29T12:42:44;100584.91;;;8.78;100.00
62124;BME280;48110;47.532;19.078;2023-12-29T12:45:59;100579.41;;;8.89;100.00
62124;BME280;48110;47.532;19.078;2023-12-29T12:49:09;100583.91;;;8.96;100.00
62124;BME280;48110;47.532;19.078;2023-12-29T12:52:12;100591.16;;;8.41;100.00
62124;BME280;48110;47.532;19.078;2023-12-29T12:55:15;100584.69;;;8.26;100.00
62124;BME280;48110;47.532;19.078;2023-12-29T12:58:19;100589.44;;;8.22;100.00
62124;BME280;48110;47.532;19.078;2023-12-29T13:01:25;100595.84;;;7.93;100.00
62124;BME280;48110;47.532;19.078;2023-12-29T13:04:29;100598.53;;;8.10;100.00
62124;BME280;48110;47.532;19.078;2023-12-29T13:07:34;100588.00;;;8.28;100.00
62124;BME280;48110;47.532;19.078;2023-12-29T13:10:41;100583.38;;;8.40;100.00
62124;BME280;48110;47.532;19.078;2023-12-29T13:13:45;100573.31;;;8.43;100.00
62124;BME280;48110;47.532;19.078;2023-12-29T13:16:48;100571.75;;;8.33;100.00
62124;BME280;48110;47.532;19.078;2023-12-29T13:19:57;100571.44;;;8.08;100.00
62124;BME280;48110;47.532;19.078;2023-12-29T13:23:01;100561.94;;;7.88;100.00
62124;BME280;48110;47.532;19.078;2023-12-29T13:26:07;100568.41;;;8.03;100.00
62124;BME280;48110;47.532;19.078;2023-12-29T13:29:12;100566.34;;;7.97;100.00
62124;BME280;48110;47.532;19.078;2023-12-29T13:32:22;100567.13;;;8.07;100.00
62124;BME280;48110;47.532;19.078;2023-12-29T13:35:37;100572.28;;;7.99;100.00
62124;BME280;48110;47.532;19.078;2023-12-29T13:38:57;100571.72;;;8.05;100.00
62124;BME280;48110;47.532;19.078;2023-12-29T13:42:04;100576.03;;;8.06;100.00
62124;BME280;48110;47.532;19.078;2023-12-29T13:45:11;100564.81;;;8.22;100.00
62124;BME280;48110;47.532;19.078;2023-12-29T13:48:15;100565.34;;;8.25;100.00
62124;BME280;48110;47.532;19.078;2023-12-29T13:51:28;100559.88;;;8.09;100.00
62124;BME280;48110;47.532;19.078;2023-12-29T13:54:43;100562.91;;;8.14;100.00
62124;BME280;48110;47.532;19.078;2023-12-29T13:57:46;100563.34;;;8.10;100.00
62124;BME280;48110;47.532;19.078;2023-12-29T14:00:56;100556.00;;;8.04;100.00
62124;BME280;48110;47.532;19.078;2023-12-29T14:04:03;100556.34;;;8.18;100.00
62124;BME280;48110;47.532;19.078;2023-12-29T14:07:10;100549.47;;;8.35;100.00
62124;BME280;48110;47.532;19.078;2023-12-29T14:10:14;100563.91;;;8.04;100.00
62124;BME280;48110;47.532;19.078;2023-12-29T14:13:17;100563.34;;;8.10;100.00
62124;BME280;48110;47.532;19.078;2023-12-29T14:16:20;100570.66;;;7.98;100.00
62124;BME280;48110;47.532;19.078;2023-12-29T14:19:24;100585.81;;;7.96;100.00
62124;BME280;48110;47.532;19.078;2023-12-29T14:22:27;100574.56;;;7.84;100.00
62124;BME280;48110;47.532;19.078;2023-12-29T14:25:41;100558.91;;;7.83;100.00
62124;BME280;48110;47.532;19.078;2023-12-29T14:28:44;100569.50;;;7.73;100.00
62124;BME280;48110;47.532;19.078;2023-12-29T14:31:48;100553.69;;;7.64;100.00
62124;BME280;48110;47.532;19.078;2023-12-29T14:34:54;100558.72;;;7.57;100.00
62124;BME280;48110;47.532;19.078;2023-12-29T14:37:59;100571.81;;;7.49;100.00
62124;BME280;48110;47.532;19.078;2023-12-29T14:41:03;100575.31;;;7.40;100.00
62124;BME280;48110;47.532;19.078;2023-12-29T14:44:09;100586.13;;;7.37;100.00
62124;BME280;48110;47.532;19.078;2023-12-29T14:47:13;100586.16;;;7.27;100.00
62124;BME280;48110;47.532;19.078;2023-12-29T14:50:17;100585.75;;;7.13;100.00
62124;BME280;48110;47.532;19.078;2023-12-29T14:53:20;100588.97;;;7.16;100.00
62124;BME280;48110;47.532;19.078;2023-12-29T14:56:23;100583.28;;;7.02;100.00
62124;BME280;48110;47.532;19.078;2023-12-29T14:59:26;100590.78;;;6.87;100.00
62124;BME280;48110;47.532;19.078;2023-12-29T15:02:29;100591.75;;;6.86;100.00
62124;BME280;48110;47.532;19.078;2023-12-29T15:05:32;100597.16;;;6.75;100.00
62124;BME280;48110;47.532;19.078;2023-12-29T15:08:35;100592.00;;;6.64;100.00
62124;BME280;48110;47.532;19.078;2023-12-29T15:11:40;100612.38;;;6.42;100.00
62124;BME280;48110;47.532;19.078;2023-12-29T15:14:43;100610.25;;;6.27;100.00
62124;BME280;48110;47.532;19.078;2023-12-29T15:17:45;100611.00;;;5.98;100.00
62124;BME280;48110;47.532;19.078;2023-12-29T15:20:49;100604.31;;;5.74;100.00
62124;BME280;48110;47.532;19.078;2023-12-29T15:23:52;100619.28;;;5.73;100.00
62124;BME280;48110;47.532;19.078;2023-12-29T15:26:54;100614.44;;;5.48;100.00
62124;BME280;48110;47.532;19.078;2023-12-29T15:29:57;100624.25;;;5.25;100.00
62124;BME280;48110;47.532;19.078;2023-12-29T15:33:00;100624.94;;;5.06;100.00
62124;BME280;48110;47.532;19.078;2023-12-29T15:36:05;100616.03;;;4.98;100.00
62124;BME280;48110;47.532;19.078;2023-12-29T15:39:09;100612.59;;;4.86;100.00
62124;BME280;48110;47.532;19.078;2023-12-29T15:42:12;100615.63;;;4.70;100.00
62124;BME280;48110;47.532;19.078;2023-12-29T15:45:15;100628.38;;;4.54;100.00
62124;BME280;48110;47.532;19.078;2023-12-29T15:48:21;100635.88;;;4.48;100.00
62124;BME280;48110;47.532;19.078;2023-12-29T15:51:24;100634.09;;;4.48;100.00
62124;BME280;48110;47.532;19.078;2023-12-29T15:54:27;100637.09;;;4.32;100.00
62124;BME280;48110;47.532;19.078;2023-12-29T15:57:31;100635.47;;;4.20;100.00
62124;BME280;48110;47.532;19.078;2023-12-29T16:00:34;100647.03;;;4.29;100.00